sensor_id;sensor_type;location;lat;lon;timestamp;P1;durP1;ratioP1;P2;durP2;ratioP2
19151;SDS011;9708;53.114;9.388;2023-05-10T00:01:13;2.75;;;1.90;;
19151;SDS011;9708;53.114;9.388;2023-05-10T00:03:40;3.78;;;1.50;;
19151;SDS011;9708;53.114;9.388;2023-05-10T00:06:07;2.50;;;1.52;;
19151;SDS011;9708;53.114;9.388;2023-05-10T00:08:33;2.33;;;1.67;;
19151;SDS011;9708;53.114;9.388;2023-05-10T00:11:00;3.42;;;1.52;;
19151;SDS011;9708;53.114;9.388;2023-05-10T00:13:28;2.50;;;1.60;;
19151;SDS011;9708;53.114;9.388;2023-05-10T00:15:55;3.30;;;2.45;;
19151;SDS011;9708;53.114;9.388;2023-05-10T00:18:22;2.70;;;1.83;;
19151;SDS011;9708;53.114;9.388;2023-05-10T00:20:49;2.60;;;1.65;;
19151;SDS011;9708;53.114;9.388;2023-05-10T00:23:15;5.30;;;1.60;;
19151;SDS011;9708;53.114;9.388;2023-05-10T00:25:42;1.70;;;1.60;;
19151;SDS011;9708;53.114;9.388;2023-05-10T00:28:09;3.13;;;1.50;;
19151;SDS011;9708;53.114;9.388;2023-05-10T00:30:37;3.05;;;1.88;;
19151;SDS011;9708;53.114;9.388;2023-05-10T00:33:04;2.95;;;2.22;;
19151;SDS011;9708;53.114;9.388;2023-05-10T00:35:30;3.03;;;1.80;;
19151;SDS011;9708;53.114;9.388;2023-05-10T00:37:57;5.47;;;1.60;;
19151;SDS011;9708;53.114;9.388;2023-05-10T00:40:24;2.05;;;1.63;;
19151;SDS011;9708;53.114;9.388;2023-05-10T00:42:51;2.80;;;1.92;;
19151;SDS011;9708;53.114;9.388;2023-05-10T00:45:18;1.50;;;1.40;;
19151;SDS011;9708;53.114;9.388;2023-05-10T00:47:46;2.15;;;1.92;;
19151;SDS011;9708;53.114;9.388;2023-05-10T00:50:13;2.38;;;1.60;;
19151;SDS011;9708;53.114;9.388;2023-05-10T00:52:40;2.38;;;1.60;;
19151;SDS011;9708;53.114;9.388;2023-05-10T00:55:08;4.13;;;1.88;;
19151;SDS011;9708;53.114;9.388;2023-05-10T00:57:37;2.00;;;1.50;;
19151;SDS011;9708;53.114;9.388;2023-05-10T01:00:04;2.45;;;1.60;;
19151;SDS011;9708;53.114;9.388;2023-05-10T01:02:33;2.15;;;1.40;;
19151;SDS011;9708;53.114;9.388;2023-05-10T01:05:01;2.88;;;1.90;;
19151;SDS011;9708;53.114;9.388;2023-05-10T01:07:30;3.63;;;2.28;;
19151;SDS011;9708;53.114;9.388;2023-05-10T01:09:56;2.67;;;1.80;;
19151;SDS011;9708;53.114;9.388;2023-05-10T01:12:23;4.95;;;2.03;;
19151;SDS011;9708;53.114;9.388;2023-05-10T01:14:51;2.03;;;1.73;;
19151;SDS011;9708;53.114;9.388;2023-05-10T01:17:18;1.85;;;1.75;;
19151;SDS011;9708;53.114;9.388;2023-05-10T01:19:45;2.17;;;1.83;;
19151;SDS011;9708;53.114;9.388;2023-05-10T01:22:18;2.45;;;2.22;;
19151;SDS011;9708;53.114;9.388;2023-05-10T01:31:06;2.13;;;1.92;;
19151;SDS011;9708;53.114;9.388;2023-05-10T01:33:46;2.33;;;1.67;;
19151;SDS011;9708;53.114;9.388;2023-05-10T01:36:19;3.38;;;1.95;;
19151;SDS011;9708;53.114;9.388;2023-05-10T01:38:53;1.85;;;1.67;;
19151;SDS011;9708;53.114;9.388;2023-05-10T01:41:28;1.85;;;1.50;;
19151;SDS011;9708;53.114;9.388;2023-05-10T01:44:04;2.45;;;2.10;;
19151;SDS011;9708;53.114;9.388;2023-05-10T01:46:38;3.85;;;2.10;;
19151;SDS011;9708;53.114;9.388;2023-05-10T01:49:08;2.22;;;1.50;;
19151;SDS011;9708;53.114;9.388;2023-05-10T01:51:38;2.20;;;2.10;;
19151;SDS011;9708;53.114;9.388;2023-05-10T01:54:08;1.52;;;1.42;;
19151;SDS011;9708;53.114;9.388;2023-05-10T01:56:35;3.10;;;2.00;;
19151;SDS011;9708;53.114;9.388;2023-05-10T01:59:05;3.10;;;2.00;;
19151;SDS011;9708;53.114;9.388;2023-05-10T02:01:35;3.20;;;2.00;;
19151;SDS011;9708;53.114;9.388;2023-05-10T02:04:03;2.30;;;2.10;;
19151;SDS011;9708;53.114;9.388;2023-05-10T02:06:34;2.70;;;2.42;;
19151;SDS011;9708;53.114;9.388;2023-05-10T02:09:01;1.92;;;1.52;;
19151;SDS011;9708;53.114;9.388;2023-05-10T02:11:29;2.78;;;2.20;;
19151;SDS011;9708;53.114;9.388;2023-05-10T02:13:57;4.78;;;1.55;;
19151;SDS011;9708;53.114;9.388;2023-05-10T02:16:24;2.97;;;2.22;;
19151;SDS011;9708;53.114;9.388;2023-05-10T02:18:55;3.10;;;1.93;;
19151;SDS011;9708;53.114;9.388;2023-05-10T02:21:25;2.67;;;2.10;;
19151;SDS011;9708;53.114;9.388;2023-05-10T02:23:54;4.67;;;2.03;;
19151;SDS011;9708;53.114;9.388;2023-05-10T02:26:22;2.75;;;1.95;;
19151;SDS011;9708;53.114;9.388;2023-05-10T02:28:51;3.47;;;2.08;;
19151;SDS011;9708;53.114;9.388;2023-05-10T02:31:19;3.08;;;2.13;;
19151;SDS011;9708;53.114;9.388;2023-05-10T02:33:47;3.20;;;2.30;;
19151;SDS011;9708;53.114;9.388;2023-05-10T02:36:15;2.08;;;1.70;;
19151;SDS011;9708;53.114;9.388;2023-05-10T02:38:43;7.37;;;1.93;;
19151;SDS011;9708;53.114;9.388;2023-05-10T02:41:13;2.43;;;2.10;;
19151;SDS011;9708;53.114;9.388;2023-05-10T02:43:40;2.15;;;1.90;;
19151;SDS011;9708;53.114;9.388;2023-05-10T02:46:08;2.03;;;1.83;;
19151;SDS011;9708;53.114;9.388;2023-05-10T02:48:35;2.27;;;1.90;;
19151;SDS011;9708;53.114;9.388;2023-05-10T02:51:04;3.00;;;2.05;;
19151;SDS011;9708;53.114;9.388;2023-05-10T02:53:33;2.20;;;2.00;;
19151;SDS011;9708;53.114;9.388;2023-05-10T02:56:05;4.57;;;2.40;;
19151;SDS011;9708;53.114;9.388;2023-05-10T02:58:39;2.13;;;1.80;;
19151;SDS011;9708;53.114;9.388;2023-05-10T03:01:06;2.58;;;2.20;;
19151;SDS011;9708;53.114;9.388;2023-05-10T03:03:33;2.95;;;2.45;;
19151;SDS011;9708;53.114;9.388;2023-05-10T03:06:00;4.13;;;1.70;;
19151;SDS011;9708;53.114;9.388;2023-05-10T03:08:27;2.17;;;1.98;;
19151;SDS011;9708;53.114;9.388;2023-05-10T03:10:56;4.15;;;2.25;;
19151;SDS011;9708;53.114;9.388;2023-05-10T03:13:35;3.07;;;2.30;;
19151;SDS011;9708;53.114;9.388;2023-05-10T03:16:12;3.70;;;2.20;;
19151;SDS011;9708;53.114;9.388;2023-05-10T03:18:42;1.93;;;1.70;;
19151;SDS011;9708;53.114;9.388;2023-05-10T03:21:13;2.43;;;2.17;;
19151;SDS011;9708;53.114;9.388;2023-05-10T03:23:45;2.75;;;2.03;;
19151;SDS011;9708;53.114;9.388;2023-05-10T03:26:15;3.50;;;1.98;;
19151;SDS011;9708;53.114;9.388;2023-05-10T03:28:51;2.63;;;2.38;;
19151;SDS011;9708;53.114;9.388;2023-05-10T03:31:19;2.00;;;1.80;;
19151;SDS011;9708;53.114;9.388;2023-05-10T03:33:46;3.63;;;2.80;;
19151;SDS011;9708;53.114;9.388;2023-05-10T03:36:14;2.63;;;2.33;;
19151;SDS011;9708;53.114;9.388;2023-05-10T03:38:41;3.50;;;2.50;;
19151;SDS011;9708;53.114;9.388;2023-05-10T03:41:08;3.53;;;2.50;;
19151;SDS011;9708;53.114;9.388;2023-05-10T03:43:34;1.83;;;1.70;;
19151;SDS011;9708;53.114;9.388;2023-05-10T03:46:03;2.20;;;2.00;;
19151;SDS011;9708;53.114;9.388;2023-05-10T03:48:30;4.57;;;2.28;;
19151;SDS011;9708;53.114;9.388;2023-05-10T03:50:58;3.17;;;2.38;;
19151;SDS011;9708;53.114;9.388;2023-05-10T03:53:25;2.83;;;1.98;;
19151;SDS011;9708;53.114;9.388;2023-05-10T03:55:52;4.05;;;2.40;;
19151;SDS011;9708;53.114;9.388;2023-05-10T03:58:18;2.67;;;2.10;;
19151;SDS011;9708;53.114;9.388;2023-05-10T04:00:45;3.22;;;2.22;;
19151;SDS011;9708;53.114;9.388;2023-05-10T04:03:13;3.10;;;2.30;;
19151;SDS011;9708;53.114;9.388;2023-05-10T04:05:40;2.85;;;2.05;;
19151;SDS011;9708;53.114;9.388;2023-05-10T04:08:07;2.55;;;1.90;;
19151;SDS011;9708;53.114;9.388;2023-05-10T04:10:34;2.05;;;1.90;;
19151;SDS011;9708;53.114;9.388;2023-05-10T04:13:01;5.33;;;3.13;;
19151;SDS011;9708;53.114;9.388;2023-05-10T04:15:28;2.20;;;2.00;;
19151;SDS011;9708;53.114;9.388;2023-05-10T04:17:54;2.78;;;1.92;;
19151;SDS011;9708;53.114;9.388;2023-05-10T04:20:22;2.45;;;2.25;;
19151;SDS011;9708;53.114;9.388;2023-05-10T04:22:50;3.55;;;2.40;;
19151;SDS011;9708;53.114;9.388;2023-05-10T04:25:16;2.83;;;2.00;;
19151;SDS011;9708;53.114;9.388;2023-05-10T04:27:43;2.90;;;2.08;;
19151;SDS011;9708;53.114;9.388;2023-05-10T04:30:10;2.28;;;1.92;;
19151;SDS011;9708;53.114;9.388;2023-05-10T04:32:37;3.47;;;2.75;;
19151;SDS011;9708;53.114;9.388;2023-05-10T04:35:04;4.40;;;2.10;;
19151;SDS011;9708;53.114;9.388;2023-05-10T04:37:33;4.43;;;2.50;;
19151;SDS011;9708;53.114;9.388;2023-05-10T04:40:00;3.03;;;2.20;;
19151;SDS011;9708;53.114;9.388;2023-05-10T04:42:28;4.80;;;2.05;;
19151;SDS011;9708;53.114;9.388;2023-05-10T04:44:54;5.15;;;2.67;;
19151;SDS011;9708;53.114;9.388;2023-05-10T04:47:21;2.17;;;1.97;;
19151;SDS011;9708;53.114;9.388;2023-05-10T04:49:48;4.18;;;2.13;;
19151;SDS011;9708;53.114;9.388;2023-05-10T04:52:14;2.87;;;2.17;;
19151;SDS011;9708;53.114;9.388;2023-05-10T04:54:44;2.33;;;1.90;;
19151;SDS011;9708;53.114;9.388;2023-05-10T04:57:10;3.22;;;2.30;;
19151;SDS011;9708;53.114;9.388;2023-05-10T04:59:37;1.90;;;1.63;;
19151;SDS011;9708;53.114;9.388;2023-05-10T05:02:04;2.20;;;2.00;;
19151;SDS011;9708;53.114;9.388;2023-05-10T05:04:31;3.50;;;2.50;;
19151;SDS011;9708;53.114;9.388;2023-05-10T05:06:58;2.88;;;2.22;;
19151;SDS011;9708;53.114;9.388;2023-05-10T05:09:25;3.33;;;2.10;;
19151;SDS011;9708;53.114;9.388;2023-05-10T05:11:53;2.70;;;2.10;;
19151;SDS011;9708;53.114;9.388;2023-05-10T05:14:19;3.45;;;2.38;;
19151;SDS011;9708;53.114;9.388;2023-05-10T05:16:46;2.40;;;2.20;;
19151;SDS011;9708;53.114;9.388;2023-05-10T05:19:13;2.97;;;2.08;;
19151;SDS011;9708;53.114;9.388;2023-05-10T05:21:40;3.37;;;2.27;;
19151;SDS011;9708;53.114;9.388;2023-05-10T05:24:07;2.55;;;2.00;;
19151;SDS011;9708;53.114;9.388;2023-05-10T05:26:35;3.10;;;1.63;;
19151;SDS011;9708;53.114;9.388;2023-05-10T05:29:03;2.80;;;2.03;;
19151;SDS011;9708;53.114;9.388;2023-05-10T05:31:30;1.83;;;1.73;;
19151;SDS011;9708;53.114;9.388;2023-05-10T05:33:57;2.90;;;2.15;;
19151;SDS011;9708;53.114;9.388;2023-05-10T05:36:23;2.67;;;2.13;;
19151;SDS011;9708;53.114;9.388;2023-05-10T05:38:50;2.45;;;2.17;;
19151;SDS011;9708;53.114;9.388;2023-05-10T05:41:17;4.75;;;2.40;;
19151;SDS011;9708;53.114;9.388;2023-05-10T05:43:44;3.00;;;2.33;;
19151;SDS011;9708;53.114;9.388;2023-05-10T05:46:12;6.07;;;3.53;;
19151;SDS011;9708;53.114;9.388;2023-05-10T05:48:38;6.50;;;2.57;;
19151;SDS011;9708;53.114;9.388;2023-05-10T05:51:05;3.20;;;2.47;;
19151;SDS011;9708;53.114;9.388;2023-05-10T05:53:32;3.13;;;2.50;;
19151;SDS011;9708;53.114;9.388;2023-05-10T05:55:59;4.70;;;2.90;;
19151;SDS011;9708;53.114;9.388;2023-05-10T05:58:26;2.80;;;2.40;;
19151;SDS011;9708;53.114;9.388;2023-05-10T06:00:53;3.15;;;2.50;;
19151;SDS011;9708;53.114;9.388;2023-05-10T06:03:21;4.00;;;2.93;;
19151;SDS011;9708;53.114;9.388;2023-05-10T06:05:48;4.10;;;2.67;;
19151;SDS011;9708;53.114;9.388;2023-05-10T06:08:14;3.40;;;2.87;;
19151;SDS011;9708;53.114;9.388;2023-05-10T06:10:41;7.53;;;4.03;;
19151;SDS011;9708;53.114;9.388;2023-05-10T06:13:09;6.07;;;3.93;;
19151;SDS011;9708;53.114;9.388;2023-05-10T06:15:36;6.47;;;3.57;;
19151;SDS011;9708;53.114;9.388;2023-05-10T06:18:02;4.90;;;3.50;;
19151;SDS011;9708;53.114;9.388;2023-05-10T06:20:31;7.20;;;2.93;;
19151;SDS011;9708;53.114;9.388;2023-05-10T06:22:57;6.50;;;3.20;;
19151;SDS011;9708;53.114;9.388;2023-05-10T06:25:24;3.43;;;2.90;;
19151;SDS011;9708;53.114;9.388;2023-05-10T06:27:51;3.77;;;2.67;;
19151;SDS011;9708;53.114;9.388;2023-05-10T06:30:22;2.53;;;2.33;;
19151;SDS011;9708;53.114;9.388;2023-05-10T06:32:52;2.97;;;2.67;;
19151;SDS011;9708;53.114;9.388;2023-05-10T06:35:20;3.30;;;2.77;;
19151;SDS011;9708;53.114;9.388;2023-05-10T06:37:49;4.53;;;2.83;;
19151;SDS011;9708;53.114;9.388;2023-05-10T06:40:16;4.17;;;3.30;;
19151;SDS011;9708;53.114;9.388;2023-05-10T06:42:44;11.17;;;5.00;;
19151;SDS011;9708;53.114;9.388;2023-05-10T06:45:11;6.13;;;4.00;;
19151;SDS011;9708;53.114;9.388;2023-05-10T06:47:38;4.60;;;3.60;;
19151;SDS011;9708;53.114;9.388;2023-05-10T06:50:05;4.63;;;3.17;;
19151;SDS011;9708;53.114;9.388;2023-05-10T06:52:33;6.13;;;3.63;;
19151;SDS011;9708;53.114;9.388;2023-05-10T06:55:01;4.17;;;3.10;;
19151;SDS011;9708;53.114;9.388;2023-05-10T06:57:28;4.93;;;2.97;;
19151;SDS011;9708;53.114;9.388;2023-05-10T06:59:55;3.63;;;2.90;;
19151;SDS011;9708;53.114;9.388;2023-05-10T07:02:22;4.07;;;3.13;;
19151;SDS011;9708;53.114;9.388;2023-05-10T07:04:49;3.40;;;2.83;;
19151;SDS011;9708;53.114;9.388;2023-05-10T07:07:16;6.47;;;3.00;;
19151;SDS011;9708;53.114;9.388;2023-05-10T07:09:43;6.37;;;3.63;;
19151;SDS011;9708;53.114;9.388;2023-05-10T07:12:12;4.47;;;2.77;;
19151;SDS011;9708;53.114;9.388;2023-05-10T07:14:39;9.03;;;3.37;;
19151;SDS011;9708;53.114;9.388;2023-05-10T07:17:06;5.10;;;3.13;;
19151;SDS011;9708;53.114;9.388;2023-05-10T07:19:32;6.47;;;3.67;;
19151;SDS011;9708;53.114;9.388;2023-05-10T07:21:59;5.63;;;3.90;;
19151;SDS011;9708;53.114;9.388;2023-05-10T07:24:26;7.47;;;3.37;;
19151;SDS011;9708;53.114;9.388;2023-05-10T07:26:53;3.73;;;3.33;;
19151;SDS011;9708;53.114;9.388;2023-05-10T07:29:21;6.30;;;4.20;;
19151;SDS011;9708;53.114;9.388;2023-05-10T07:31:48;6.93;;;4.73;;
19151;SDS011;9708;53.114;9.388;2023-05-10T07:34:15;9.37;;;5.83;;
19151;SDS011;9708;53.114;9.388;2023-05-10T07:36:41;10.27;;;4.77;;
19151;SDS011;9708;53.114;9.388;2023-05-10T07:39:08;6.77;;;4.20;;
19151;SDS011;9708;53.114;9.388;2023-05-10T07:41:35;4.53;;;3.50;;
19151;SDS011;9708;53.114;9.388;2023-05-10T07:44:03;9.47;;;3.20;;
19151;SDS011;9708;53.114;9.388;2023-05-10T07:46:32;4.60;;;3.47;;
19151;SDS011;9708;53.114;9.388;2023-05-10T07:48:58;3.97;;;3.57;;
19151;SDS011;9708;53.114;9.388;2023-05-10T07:51:25;6.40;;;3.70;;
19151;SDS011;9708;53.114;9.388;2023-05-10T07:53:53;4.70;;;3.30;;
19151;SDS011;9708;53.114;9.388;2023-05-10T07:56:20;5.57;;;4.10;;
19151;SDS011;9708;53.114;9.388;2023-05-10T07:58:50;9.47;;;5.40;;
19151;SDS011;9708;53.114;9.388;2023-05-10T08:01:17;7.57;;;4.30;;
19151;SDS011;9708;53.114;9.388;2023-05-10T08:03:45;5.00;;;3.97;;
19151;SDS011;9708;53.114;9.388;2023-05-10T08:06:12;6.47;;;4.47;;
19151;SDS011;9708;53.114;9.388;2023-05-10T08:08:40;8.00;;;4.57;;
19151;SDS011;9708;53.114;9.388;2023-05-10T08:11:07;7.13;;;4.53;;
19151;SDS011;9708;53.114;9.388;2023-05-10T08:13:34;4.03;;;3.37;;
19151;SDS011;9708;53.114;9.388;2023-05-10T08:16:00;6.07;;;4.03;;
19151;SDS011;9708;53.114;9.388;2023-05-10T08:18:27;6.80;;;3.87;;
19151;SDS011;9708;53.114;9.388;2023-05-10T08:20:55;6.13;;;4.07;;
19151;SDS011;9708;53.114;9.388;2023-05-10T08:23:22;8.07;;;4.20;;
19151;SDS011;9708;53.114;9.388;2023-05-10T08:25:49;9.90;;;4.93;;
19151;SDS011;9708;53.114;9.388;2023-05-10T08:28:15;10.57;;;5.43;;
19151;SDS011;9708;53.114;9.388;2023-05-10T08:30:42;9.17;;;4.73;;
19151;SDS011;9708;53.114;9.388;2023-05-10T08:33:09;6.23;;;4.33;;
19151;SDS011;9708;53.114;9.388;2023-05-10T08:35:35;6.23;;;3.50;;
19151;SDS011;9708;53.114;9.388;2023-05-10T08:38:03;7.10;;;4.00;;
19151;SDS011;9708;53.114;9.388;2023-05-10T08:40:30;7.37;;;4.80;;
19151;SDS011;9708;53.114;9.388;2023-05-10T08:42:58;12.17;;;5.03;;
19151;SDS011;9708;53.114;9.388;2023-05-10T08:45:31;6.33;;;4.37;;
19151;SDS011;9708;53.114;9.388;2023-05-10T08:47:59;5.33;;;4.43;;
19151;SDS011;9708;53.114;9.388;2023-05-10T08:50:28;7.17;;;4.47;;
19151;SDS011;9708;53.114;9.388;2023-05-10T08:52:57;5.97;;;3.90;;
19151;SDS011;9708;53.114;9.388;2023-05-10T08:55:28;6.07;;;3.57;;
19151;SDS011;9708;53.114;9.388;2023-05-10T08:57:55;8.00;;;5.00;;
19151;SDS011;9708;53.114;9.388;2023-05-10T09:00:22;8.00;;;4.13;;
19151;SDS011;9708;53.114;9.388;2023-05-10T09:02:49;7.07;;;4.70;;
19151;SDS011;9708;53.114;9.388;2023-05-10T09:05:16;8.57;;;4.97;;
19151;SDS011;9708;53.114;9.388;2023-05-10T09:07:43;10.70;;;4.83;;
19151;SDS011;9708;53.114;9.388;2023-05-10T09:10:10;5.73;;;3.67;;
19151;SDS011;9708;53.114;9.388;2023-05-10T09:12:40;7.27;;;4.70;;
19151;SDS011;9708;53.114;9.388;2023-05-10T09:15:09;6.70;;;4.67;;
19151;SDS011;9708;53.114;9.388;2023-05-10T09:17:36;9.50;;;4.47;;
19151;SDS011;9708;53.114;9.388;2023-05-10T09:20:05;8.73;;;4.40;;
19151;SDS011;9708;53.114;9.388;2023-05-10T09:22:32;10.17;;;5.07;;
19151;SDS011;9708;53.114;9.388;2023-05-10T09:25:06;7.67;;;4.57;;
19151;SDS011;9708;53.114;9.388;2023-05-10T09:27:34;8.27;;;5.37;;
19151;SDS011;9708;53.114;9.388;2023-05-10T09:30:03;7.07;;;4.87;;
19151;SDS011;9708;53.114;9.388;2023-05-10T09:32:37;7.30;;;4.53;;
19151;SDS011;9708;53.114;9.388;2023-05-10T09:35:06;7.25;;;4.88;;
19151;SDS011;9708;53.114;9.388;2023-05-10T09:37:34;11.63;;;5.13;;
19151;SDS011;9708;53.114;9.388;2023-05-10T09:40:01;6.60;;;4.28;;
19151;SDS011;9708;53.114;9.388;2023-05-10T09:42:31;6.50;;;4.78;;
19151;SDS011;9708;53.114;9.388;2023-05-10T09:44:59;6.80;;;4.90;;
19151;SDS011;9708;53.114;9.388;2023-05-10T09:47:37;7.88;;;4.60;;
19151;SDS011;9708;53.114;9.388;2023-05-10T09:50:04;5.45;;;4.18;;
19151;SDS011;9708;53.114;9.388;2023-05-10T09:52:33;7.15;;;4.82;;
19151;SDS011;9708;53.114;9.388;2023-05-10T09:55:12;6.30;;;4.20;;
19151;SDS011;9708;53.114;9.388;2023-05-10T09:57:39;8.30;;;4.65;;
19151;SDS011;9708;53.114;9.388;2023-05-10T10:00:07;4.80;;;3.50;;
19151;SDS011;9708;53.114;9.388;2023-05-10T10:02:35;6.38;;;4.25;;
19151;SDS011;9708;53.114;9.388;2023-05-10T10:05:03;7.13;;;4.57;;
19151;SDS011;9708;53.114;9.388;2023-05-10T10:07:32;8.65;;;4.47;;
19151;SDS011;9708;53.114;9.388;2023-05-10T10:09:59;6.28;;;4.07;;
19151;SDS011;9708;53.114;9.388;2023-05-10T10:12:27;6.68;;;4.38;;
19151;SDS011;9708;53.114;9.388;2023-05-10T10:14:54;9.02;;;5.50;;
19151;SDS011;9708;53.114;9.388;2023-05-10T10:17:22;11.40;;;5.47;;
19151;SDS011;9708;53.114;9.388;2023-05-10T10:19:54;5.70;;;4.68;;
19151;SDS011;9708;53.114;9.388;2023-05-10T10:22:21;6.47;;;4.07;;
19151;SDS011;9708;53.114;9.388;2023-05-10T10:24:48;5.68;;;3.75;;
19151;SDS011;9708;53.114;9.388;2023-05-10T10:27:19;4.35;;;3.65;;
19151;SDS011;9708;53.114;9.388;2023-05-10T10:29:51;16.35;;;4.40;;
19151;SDS011;9708;53.114;9.388;2023-05-10T10:32:26;4.68;;;3.17;;
19151;SDS011;9708;53.114;9.388;2023-05-10T10:35:00;5.85;;;4.10;;
19151;SDS011;9708;53.114;9.388;2023-05-10T10:37:41;6.45;;;3.65;;
19151;SDS011;9708;53.114;9.388;2023-05-10T10:42:55;4.07;;;3.05;;
19151;SDS011;9708;53.114;9.388;2023-05-10T10:45:23;4.57;;;3.25;;
19151;SDS011;9708;53.114;9.388;2023-05-10T10:47:53;4.15;;;3.40;;
19151;SDS011;9708;53.114;9.388;2023-05-10T10:50:51;4.60;;;3.10;;
19151;SDS011;9708;53.114;9.388;2023-05-10T10:53:23;3.63;;;2.92;;
19151;SDS011;9708;53.114;9.388;2023-05-10T10:55:55;3.55;;;2.92;;
19151;SDS011;9708;53.114;9.388;2023-05-10T10:58:31;3.58;;;2.80;;
19151;SDS011;9708;53.114;9.388;2023-05-10T11:01:09;2.85;;;2.30;;
19151;SDS011;9708;53.114;9.388;2023-05-10T11:03:38;4.40;;;2.95;;
19151;SDS011;9708;53.114;9.388;2023-05-10T11:06:05;4.75;;;3.08;;
19151;SDS011;9708;53.114;9.388;2023-05-10T11:08:33;25.20;;;9.55;;
19151;SDS011;9708;53.114;9.388;2023-05-10T11:11:07;4.22;;;2.85;;
19151;SDS011;9708;53.114;9.388;2023-05-10T11:13:34;4.03;;;3.22;;
19151;SDS011;9708;53.114;9.388;2023-05-10T11:16:11;3.80;;;3.03;;
19151;SDS011;9708;53.114;9.388;2023-05-10T11:18:41;2.97;;;2.63;;
19151;SDS011;9708;53.114;9.388;2023-05-10T11:21:18;4.85;;;2.53;;
19151;SDS011;9708;53.114;9.388;2023-05-10T11:23:49;3.90;;;2.70;;
19151;SDS011;9708;53.114;9.388;2023-05-10T11:26:17;5.05;;;3.78;;
19151;SDS011;9708;53.114;9.388;2023-05-10T11:28:48;2.88;;;2.55;;
19151;SDS011;9708;53.114;9.388;2023-05-10T11:31:15;3.75;;;3.00;;
19151;SDS011;9708;53.114;9.388;2023-05-10T11:33:44;4.50;;;3.03;;
19151;SDS011;9708;53.114;9.388;2023-05-10T11:36:12;2.53;;;2.33;;
19151;SDS011;9708;53.114;9.388;2023-05-10T11:38:40;3.10;;;2.25;;
19151;SDS011;9708;53.114;9.388;2023-05-10T11:41:07;3.50;;;2.10;;
19151;SDS011;9708;53.114;9.388;2023-05-10T11:43:35;2.10;;;1.80;;
19151;SDS011;9708;53.114;9.388;2023-05-10T11:46:03;1.90;;;1.77;;
19151;SDS011;9708;53.114;9.388;2023-05-10T11:48:30;2.08;;;1.85;;
19151;SDS011;9708;53.114;9.388;2023-05-10T11:50:59;1.75;;;1.40;;
19151;SDS011;9708;53.114;9.388;2023-05-10T11:53:27;2.40;;;1.67;;
19151;SDS011;9708;53.114;9.388;2023-05-10T11:55:54;1.80;;;1.65;;
19151;SDS011;9708;53.114;9.388;2023-05-10T11:58:20;2.58;;;1.52;;
19151;SDS011;9708;53.114;9.388;2023-05-10T12:00:48;1.30;;;1.20;;
19151;SDS011;9708;53.114;9.388;2023-05-10T12:03:16;10.90;;;4.90;;
19151;SDS011;9708;53.114;9.388;2023-05-10T12:05:43;28.13;;;10.77;;
19151;SDS011;9708;53.114;9.388;2023-05-10T12:08:11;1.95;;;1.55;;
19151;SDS011;9708;53.114;9.388;2023-05-10T12:10:39;2.58;;;1.90;;
19151;SDS011;9708;53.114;9.388;2023-05-10T12:13:10;4.85;;;2.30;;
19151;SDS011;9708;53.114;9.388;2023-05-10T12:15:39;1.70;;;1.60;;
19151;SDS011;9708;53.114;9.388;2023-05-10T12:18:07;1.60;;;1.45;;
19151;SDS011;9708;53.114;9.388;2023-05-10T12:20:35;1.75;;;1.40;;
19151;SDS011;9708;53.114;9.388;2023-05-10T12:23:02;1.95;;;1.60;;
19151;SDS011;9708;53.114;9.388;2023-05-10T12:25:32;4.28;;;2.15;;
19151;SDS011;9708;53.114;9.388;2023-05-10T12:28:00;2.25;;;1.52;;
19151;SDS011;9708;53.114;9.388;2023-05-10T12:30:30;12.45;;;6.10;;
19151;SDS011;9708;53.114;9.388;2023-05-10T12:33:01;4.43;;;2.25;;
19151;SDS011;9708;53.114;9.388;2023-05-10T12:35:32;1.73;;;1.50;;
19151;SDS011;9708;53.114;9.388;2023-05-10T12:38:00;1.75;;;1.60;;
19151;SDS011;9708;53.114;9.388;2023-05-10T12:40:26;1.42;;;1.23;;
19151;SDS011;9708;53.114;9.388;2023-05-10T12:42:55;1.50;;;1.40;;
19151;SDS011;9708;53.114;9.388;2023-05-10T12:45:22;1.73;;;1.50;;
19151;SDS011;9708;53.114;9.388;2023-05-10T12:47:49;3.00;;;1.88;;
19151;SDS011;9708;53.114;9.388;2023-05-10T12:50:16;1.33;;;1.23;;
19151;SDS011;9708;53.114;9.388;2023-05-10T12:52:42;1.45;;;1.35;;
19151;SDS011;9708;53.114;9.388;2023-05-10T12:55:09;2.10;;;1.40;;
19151;SDS011;9708;53.114;9.388;2023-05-10T12:57:36;2.58;;;1.35;;
19151;SDS011;9708;53.114;9.388;2023-05-10T13:00:05;1.80;;;1.50;;
19151;SDS011;9708;53.114;9.388;2023-05-10T13:02:33;1.40;;;1.30;;
19151;SDS011;9708;53.114;9.388;2023-05-10T13:05:00;1.25;;;1.10;;
19151;SDS011;9708;53.114;9.388;2023-05-10T13:07:27;4.40;;;1.58;;
19151;SDS011;9708;53.114;9.388;2023-05-10T13:09:53;1.70;;;1.45;;
19151;SDS011;9708;53.114;9.388;2023-05-10T13:12:20;1.30;;;1.20;;
19151;SDS011;9708;53.114;9.388;2023-05-10T13:14:47;1.48;;;1.35;;
19151;SDS011;9708;53.114;9.388;2023-05-10T13:17:15;6.82;;;3.13;;
19151;SDS011;9708;53.114;9.388;2023-05-10T13:19:42;4.68;;;1.77;;
19151;SDS011;9708;53.114;9.388;2023-05-10T13:22:08;3.63;;;1.80;;
19151;SDS011;9708;53.114;9.388;2023-05-10T13:24:35;1.63;;;1.48;;
19151;SDS011;9708;53.114;9.388;2023-05-10T13:27:02;19.80;;;2.33;;
19151;SDS011;9708;53.114;9.388;2023-05-10T13:29:29;0.98;;;0.98;;
19151;SDS011;9708;53.114;9.388;2023-05-10T13:31:55;0.70;;;0.70;;
19151;SDS011;9708;53.114;9.388;2023-05-10T13:34:23;0.77;;;0.77;;
19151;SDS011;9708;53.114;9.388;2023-05-10T13:36:50;0.80;;;0.80;;
19151;SDS011;9708;53.114;9.388;2023-05-10T13:39:18;0.82;;;0.82;;
19151;SDS011;9708;53.114;9.388;2023-05-10T13:41:44;0.88;;;0.85;;
19151;SDS011;9708;53.114;9.388;2023-05-10T13:44:12;0.80;;;0.80;;
19151;SDS011;9708;53.114;9.388;2023-05-10T13:46:39;1.15;;;1.05;;
19151;SDS011;9708;53.114;9.388;2023-05-10T13:49:06;0.90;;;0.90;;
19151;SDS011;9708;53.114;9.388;2023-05-10T13:51:34;1.10;;;1.00;;
19151;SDS011;9708;53.114;9.388;2023-05-10T13:54:01;0.95;;;0.88;;
19151;SDS011;9708;53.114;9.388;2023-05-10T13:56:28;0.80;;;0.80;;
19151;SDS011;9708;53.114;9.388;2023-05-10T13:58:55;0.90;;;0.90;;
19151;SDS011;9708;53.114;9.388;2023-05-10T14:01:23;1.00;;;0.90;;
19151;SDS011;9708;53.114;9.388;2023-05-10T14:03:49;1.15;;;1.10;;
19151;SDS011;9708;53.114;9.388;2023-05-10T14:06:16;1.02;;;1.02;;
19151;SDS011;9708;53.114;9.388;2023-05-10T14:08:44;3.28;;;1.83;;
19151;SDS011;9708;53.114;9.388;2023-05-10T14:11:11;6.90;;;3.55;;
19151;SDS011;9708;53.114;9.388;2023-05-10T14:13:38;1.27;;;1.17;;
19151;SDS011;9708;53.114;9.388;2023-05-10T14:16:05;1.45;;;1.13;;
19151;SDS011;9708;53.114;9.388;2023-05-10T14:18:32;2.70;;;0.85;;
19151;SDS011;9708;53.114;9.388;2023-05-10T14:20:59;0.80;;;0.80;;
19151;SDS011;9708;53.114;9.388;2023-05-10T14:23:26;0.70;;;0.70;;
19151;SDS011;9708;53.114;9.388;2023-05-10T14:25:54;0.70;;;0.70;;
19151;SDS011;9708;53.114;9.388;2023-05-10T14:28:21;0.80;;;0.80;;
19151;SDS011;9708;53.114;9.388;2023-05-10T14:30:49;0.98;;;0.90;;
19151;SDS011;9708;53.114;9.388;2023-05-10T14:33:16;0.73;;;0.70;;
19151;SDS011;9708;53.114;9.388;2023-05-10T14:35:44;0.70;;;0.70;;
19151;SDS011;9708;53.114;9.388;2023-05-10T14:38:11;1.13;;;1.05;;
19151;SDS011;9708;53.114;9.388;2023-05-10T14:40:38;0.80;;;0.80;;
19151;SDS011;9708;53.114;9.388;2023-05-10T14:43:06;3.65;;;1.13;;
19151;SDS011;9708;53.114;9.388;2023-05-10T14:45:33;1.55;;;1.30;;
19151;SDS011;9708;53.114;9.388;2023-05-10T14:48:00;1.80;;;1.70;;
19151;SDS011;9708;53.114;9.388;2023-05-10T14:50:29;1.98;;;1.88;;
19151;SDS011;9708;53.114;9.388;2023-05-10T14:52:56;3.90;;;2.97;;
19151;SDS011;9708;53.114;9.388;2023-05-10T14:55:23;2.40;;;2.20;;
19151;SDS011;9708;53.114;9.388;2023-05-10T14:57:49;2.90;;;2.22;;
19151;SDS011;9708;53.114;9.388;2023-05-10T15:00:18;3.70;;;2.70;;
19151;SDS011;9708;53.114;9.388;2023-05-10T15:02:46;2.75;;;2.40;;
19151;SDS011;9708;53.114;9.388;2023-05-10T15:05:13;4.35;;;2.42;;
19151;SDS011;9708;53.114;9.388;2023-05-10T15:07:40;2.63;;;1.85;;
19151;SDS011;9708;53.114;9.388;2023-05-10T15:10:08;6.45;;;3.55;;
19151;SDS011;9708;53.114;9.388;2023-05-10T15:12:35;9.00;;;3.63;;
19151;SDS011;9708;53.114;9.388;2023-05-10T15:15:02;2.33;;;2.03;;